Detall de PIREP

Printer-friendly versionPDF version

[2013/12/28 12:10:00]
Flight IATA:CT1004
Pilot Number:026
Company ICAO:CAT
Aircraft Type:DC85/A
PAX:132
Aircraft Registration:PAX
Departing Airport: LIEA
Destination Airport: LSZH
Alternate Airport:LFSB
Online: VATSIM
Route:GOPAT UL978 OKBON UN851 TORTU UM858 GEN UM985 MONEB UN851 DESIP UZ651 KELIP
Flight Level:F200
No Slew and time accel
No pause
Crash detect
Detect pilot in Cockpit between each 30 and 45 minutes
12:10 Zero fuel Weight: 178748 Lbs, Fuel Weight: 27694 Lbs
12:10 VATSIM:LIEA 272250Z 01002KT CAVOK 04/04 Q1015
12:10 VATSIM:LSZH 272250Z 10004KT CAVOK 00/M01 Q1008 NOSIG
12:10 VOICE CATALONIA / X-MAS CHARTER
12:18 Take-off
12:18 Take off Weight: 205540 Lbs
12:18 Wind: 010º @ 002 Knots Heading: 023º
12:18 POS N40º 38´ 01´´ E008º 17´ 30´´
12:18 Flaps:2 at 161 Knots
12:18 Gear Up: 165 Knots
12:19 Flaps:1 at 194 Knots
12:20 Flaps:0 at 202 Knots
12:28 TOC
12:28 Fuel Weight: 23618 Lb
12:33 Wind:046º@013 Knots Heading: 000º Ground Speed: 412 Knots Altitude 20019 ft
12:48 Wind:297º@007 Knots Heading: 003º Ground Speed: 451 Knots Altitude 24087 ft
13:03 Wind:343º@013 Knots Heading: 354º Ground Speed: 437 Knots Altitude 24091 ft
13:17 TOD
13:17 Fuel Weight: 11976 Lb
13:18 Wind:147º@010 Knots Heading: 354º Ground Speed: 371 Knots Altitude 17040 ft
13:32 Gear Down: 229 Knots
13:32 Flaps:1 at 228 Knots
13:33 Wind:144º@004 Knots Heading: 158º Ground Speed: 188 Knots Altitude 3979 ft
13:34 Flaps:2 at 163 Knots
13:34 Flaps:3 at 168 Knots
13:34 Flaps:4 at 165 Knots
13:36 Flaps:5 at 142 Knots
13:36 TouchDown:Rate -259 ft/min Speed: 117 Knots
13:36 VATSIM:LSZH 272350Z 14003KT CAVOK 00/M01 Q1007 NOSIG
13:36 Land
13:36 Wind:141º@003 Knots
13:36 Heading: 137º
13:36 Flight Duration: 01:18
13:36 Landing Weight: 189126 Lbs
13:36 POS N47º 28´ 10´´ E008º 33´ 11´´
13:43 Parking brakes on
13:43 Block to Block Duration: 01:25
13:43 Final Fuel: 9761 Lbls
13:43 Spent Fuel: 17932 Lbls
13:43 Flight Length: 474 NM
13:43 TOD Land Length: 74 NM

Exportar CSV

Powered by Drupal - Modified by Danger4k